Terminal Aerodrome Forecast
Issued by NWS Goodland, KS

Home | Current Version | Previous Version | Text Only | Print | Product List | Glossary On
Versions: 1 2 3 4 5 6 7 8 9 10 11 12 13 14 15 16 17 18 19
000
FTUS43 KGLD 010517 AAD
TAFGLD
TAF AMD
KGLD 010517Z 0105/0124 30010KT P6SM VCTS BKN080CB
      TEMPO 0105/0107 30015G30KT 6SM -TSRA
     FM010700 25006KT P6SM BKN100
     FM011700 VRB05KT P6SM FEW250=

USA.gov is the U.S. government's official web portal to all federal, state and local government web resources and services.